Sunday, March 29, 2015
03:04 UTC
  |  Log In   |  Register Free
Airport Search:

Enterprise Municipal Airport
(KEDN)

Enterprise Municipal Airport Diagram
No Airport Diagram Available

FAA data valid effective March 05, 2015 - April 30, 2015 (unless otherwise noted).

 
 
 
 
 
 
 
 
 
 
 
 
 
 

Current Aviation Weather for Enterprise Municipal Airport (KEDN)

The most recent METAR observation for KEDN was updated at: 1411
METAR Summary (Translated METAR)
KEDN
251355Z AUTO 06004KT 10SM OVC055 16/13 A3015 RMK AO2
KSXS
251356Z AUTO 04003KT 10SM BKN055 15/13 A3017 RMK AO2 SLP218 T01460134
(4.6 nm NE from KEDN)
KLOR
251353Z AUTO 02003KT 10SM OVC055 16/13 A3016 RMK AO2 SLP209 T01560133
(8.3 nm NE from KEDN)
TAF
No TAF information found within 50 nm of KLOR
  Airport Weather Conditions for KEDN

 Current Weather at EDN
45° F
Fair
North winds at 0.0 mph
EDN NOAA Radar

Pressure: 30.26 in
Humidity: 61%
Wind: Calm
Dew Point: 32.0°F
Visibility: 10.00 mi


Airport Weather Forecast for KEDN

Translated METAR and TAF for KLOR
Translated METAR for KLOR (0304 UTC 29 March 2015)
found at http://aviationweather.gov/adds/metars/
 
METAR text: KLOR 290253Z AUTO 35006KT 10SM CLR 07/00 A3027 RMK AO2 SLP249 T00670000 51019
Conditions at: KLOR (LOWE AHP/FT. RUC, AL, US) observed 0253 UTC 29 March 2015
Temperature: 6.7°C (44°F)
Dewpoint: 0.0°C (32°F) [RH = 62%]
Pressure (altimeter): 30.27 inches Hg (1025.1 mb)
[Sea-level pressure: 1024.9 mb]
Winds: from the N (350 degrees) at 7 MPH (6 knots; 3.1 m/s)
Visibility: 10 or more miles (16+ km)
Ceiling: at least 12,000 feet AGL
Clouds: sky clear below 12,000 feet AGL
Weather: automated observation with no human augmentation;
there may or may not be significant weather present at this time
Translated TAF for KLOR

There is no translated TAF available for this airport

Find All Airport Services Find A Hotel Find A Rental Car Find A Golf Course Find A Restaurant $100 Hamburger



FBO's on the Field
FBO Company Facility Photos Services Transportation Aviation Fuel Prices: Prices include tax
Catering Weather Repair Courtesy Rental Type 100LL JetA JetA+ MOGAS 8087
 
Enterprise Municipal Airport

This FBO has not yet been rated
FS:Epic
Last Updated: Feb-27
Login to update fuel prices
SS:
Contact Enterprise Municipal AirportMore FBO Information
 
Add another FBO Facility Photos Catering Weather Repair Courtesy Rental Type 100LL JetA JetA+ MOGAS 8087
Services Transportation Aviation Fuel Prices: Prices include tax


model-print
model-print
model-print
model-print